sensor_id;sensor_type;location;lat;lon;timestamp;temperature;humidity
43862;DHT22;29510;52.140;5.034;2022-09-13T00:07:57;19.00;99.90
43862;DHT22;29510;52.140;5.034;2022-09-13T00:17:58;18.90;99.90
43862;DHT22;29510;52.140;5.034;2022-09-13T00:27:59;18.90;99.90
43862;DHT22;29510;52.140;5.034;2022-09-13T00:38:00;18.90;99.90
43862;DHT22;29510;52.140;5.034;2022-09-13T00:48:05;18.80;99.90
43862;DHT22;29510;52.140;5.034;2022-09-13T00:58:16;18.90;99.90
43862;DHT22;29510;52.140;5.034;2022-09-13T01:08:18;18.80;99.90
43862;DHT22;29510;52.140;5.034;2022-09-13T01:18:23;18.60;99.90
43862;DHT22;29510;52.140;5.034;2022-09-13T01:39:03;18.50;99.90
43862;DHT22;29510;52.140;5.034;2022-09-13T01:59:38;18.50;99.90
43862;DHT22;29510;52.140;5.034;2022-09-13T02:09:48;18.40;99.90
43862;DHT22;29510;52.140;5.034;2022-09-13T02:19:54;18.40;99.90
43862;DHT22;29510;52.140;5.034;2022-09-13T02:30:02;18.40;99.90
43862;DHT22;29510;52.140;5.034;2022-09-13T02:40:07;18.30;99.90
43862;DHT22;29510;52.140;5.034;2022-09-13T02:50:24;18.30;99.90
43862;DHT22;29510;52.140;5.034;2022-09-13T03:00:28;18.20;99.90
43862;DHT22;29510;52.140;5.034;2022-09-13T03:10:48;18.20;99.90
43862;DHT22;29510;52.140;5.034;2022-09-13T03:31:47;18.10;99.90
43862;DHT22;29510;52.140;5.034;2022-09-13T03:41:52;18.10;99.90
43862;DHT22;29510;52.140;5.034;2022-09-13T03:51:56;18.10;99.90
43862;DHT22;29510;52.140;5.034;2022-09-13T04:01:58;18.10;99.90
43862;DHT22;29510;52.140;5.034;2022-09-13T04:12:00;18.10;99.90
43862;DHT22;29510;52.140;5.034;2022-09-13T04:22:02;18.00;99.90
43862;DHT22;29510;52.140;5.034;2022-09-13T04:32:03;18.00;99.90
43862;DHT22;29510;52.140;5.034;2022-09-13T04:42:04;18.00;99.90
43862;DHT22;29510;52.140;5.034;2022-09-13T04:52:07;17.90;99.90
43862;DHT22;29510;52.140;5.034;2022-09-13T05:02:08;17.80;99.90
43862;DHT22;29510;52.140;5.034;2022-09-13T05:12:09;17.80;99.90
43862;DHT22;29510;52.140;5.034;2022-09-13T05:22:11;17.80;99.90
43862;DHT22;29510;52.140;5.034;2022-09-13T05:32:12;17.80;99.90
43862;DHT22;29510;52.140;5.034;2022-09-13T05:42:14;17.80;99.90
43862;DHT22;29510;52.140;5.034;2022-09-13T05:52:15;17.90;99.90
43862;DHT22;29510;52.140;5.034;2022-09-13T06:02:16;18.10;99.90
43862;DHT22;29510;52.140;5.034;2022-09-13T06:12:17;18.20;99.90
43862;DHT22;29510;52.140;5.034;2022-09-13T06:22:18;18.40;99.90
43862;DHT22;29510;52.140;5.034;2022-09-13T06:32:19;18.50;99.90
43862;DHT22;29510;52.140;5.034;2022-09-13T06:42:20;18.50;99.90
43862;DHT22;29510;52.140;5.034;2022-09-13T06:52:21;18.70;99.90
43862;DHT22;29510;52.140;5.034;2022-09-13T07:02:22;18.90;99.90
43862;DHT22;29510;52.140;5.034;2022-09-13T07:12:24;19.00;99.90
43862;DHT22;29510;52.140;5.034;2022-09-13T07:22:25;19.20;99.90
43862;DHT22;29510;52.140;5.034;2022-09-13T07:32:27;19.40;99.90
43862;DHT22;29510;52.140;5.034;2022-09-13T07:42:31;19.60;99.90
43862;DHT22;29510;52.140;5.034;2022-09-13T07:52:32;19.80;99.90
43862;DHT22;29510;52.140;5.034;2022-09-13T08:02:37;19.80;99.90
43862;DHT22;29510;52.140;5.034;2022-09-13T08:12:38;20.00;99.90
43862;DHT22;29510;52.140;5.034;2022-09-13T08:22:39;19.90;99.90
43862;DHT22;29510;52.140;5.034;2022-09-13T08:32:40;20.10;99.90
43862;DHT22;29510;52.140;5.034;2022-09-13T08:42:50;20.30;99.90
43862;DHT22;29510;52.140;5.034;2022-09-13T08:53:05;20.60;99.90
43862;DHT22;29510;52.140;5.034;2022-09-13T09:14:19;20.90;99.90
43862;DHT22;29510;52.140;5.034;2022-09-13T09:24:24;21.40;99.90
43862;DHT22;29510;52.140;5.034;2022-09-13T09:34:47;21.40;99.90
43862;DHT22;29510;52.140;5.034;2022-09-13T09:45:00;21.10;99.90
43862;DHT22;29510;52.140;5.034;2022-09-13T09:55:25;20.80;99.90
43862;DHT22;29510;52.140;5.034;2022-09-13T10:05:26;20.50;99.90
43862;DHT22;29510;52.140;5.034;2022-09-13T10:15:30;20.60;99.90
43862;DHT22;29510;52.140;5.034;2022-09-13T10:25:33;20.90;99.90
43862;DHT22;29510;52.140;5.034;2022-09-13T10:35:36;21.30;99.90
43862;DHT22;29510;52.140;5.034;2022-09-13T10:45:39;21.20;99.90
43862;DHT22;29510;52.140;5.034;2022-09-13T10:55:42;21.20;99.90
43862;DHT22;29510;52.140;5.034;2022-09-13T11:06:19;21.60;99.90
43862;DHT22;29510;52.140;5.034;2022-09-13T11:26:33;23.00;99.90
43862;DHT22;29510;52.140;5.034;2022-09-13T11:47:17;23.30;99.90
43862;DHT22;29510;52.140;5.034;2022-09-13T11:57:30;23.50;99.90
43862;DHT22;29510;52.140;5.034;2022-09-13T12:07:41;23.80;99.90
43862;DHT22;29510;52.140;5.034;2022-09-13T12:17:51;24.40;99.90
43862;DHT22;29510;52.140;5.034;2022-09-13T12:28:24;24.70;99.90
43862;DHT22;29510;52.140;5.034;2022-09-13T12:48:59;24.20;99.90
43862;DHT22;29510;52.140;5.034;2022-09-13T12:59:31;24.20;99.90
43862;DHT22;29510;52.140;5.034;2022-09-13T13:09:42;24.60;99.90
43862;DHT22;29510;52.140;5.034;2022-09-13T13:19:47;25.00;99.90
43862;DHT22;29510;52.140;5.034;2022-09-13T13:40:27;24.90;99.90
43862;DHT22;29510;52.140;5.034;2022-09-13T13:50:29;24.50;99.90
43862;DHT22;29510;52.140;5.034;2022-09-13T14:00:33;24.80;99.90
43862;DHT22;29510;52.140;5.034;2022-09-13T14:21:18;25.90;99.90
43862;DHT22;29510;52.140;5.034;2022-09-13T14:31:17;24.60;99.90
43862;DHT22;29510;52.140;5.034;2022-09-13T14:41:22;24.00;99.90
43862;DHT22;29510;52.140;5.034;2022-09-13T14:51:30;23.50;99.90
43862;DHT22;29510;52.140;5.034;2022-09-13T15:01:34;22.90;99.90
43862;DHT22;29510;52.140;5.034;2022-09-13T15:11:38;22.50;99.90
43862;DHT22;29510;52.140;5.034;2022-09-13T15:21:41;22.20;99.90
43862;DHT22;29510;52.140;5.034;2022-09-13T15:31:42;21.90;99.90
43862;DHT22;29510;52.140;5.034;2022-09-13T15:41:57;21.70;99.90
43862;DHT22;29510;52.140;5.034;2022-09-13T15:52:01;21.40;99.90
43862;DHT22;29510;52.140;5.034;2022-09-13T16:02:23;21.20;99.90
43862;DHT22;29510;52.140;5.034;2022-09-13T16:12:25;21.00;99.90
43862;DHT22;29510;52.140;5.034;2022-09-13T16:22:26;20.70;99.90
43862;DHT22;29510;52.140;5.034;2022-09-13T16:32:27;20.70;99.90
43862;DHT22;29510;52.140;5.034;2022-09-13T16:42:28;20.60;99.90
43862;DHT22;29510;52.140;5.034;2022-09-13T16:52:29;20.50;99.90
43862;DHT22;29510;52.140;5.034;2022-09-13T17:02:30;20.40;99.90
43862;DHT22;29510;52.140;5.034;2022-09-13T17:12:32;20.10;99.90
43862;DHT22;29510;52.140;5.034;2022-09-13T17:22:33;20.00;99.90
43862;DHT22;29510;52.140;5.034;2022-09-13T17:32:34;19.90;99.90
43862;DHT22;29510;52.140;5.034;2022-09-13T17:42:35;19.70;99.90
43862;DHT22;29510;52.140;5.034;2022-09-13T17:52:37;19.50;99.90
43862;DHT22;29510;52.140;5.034;2022-09-13T18:02:38;19.40;99.90
43862;DHT22;29510;52.140;5.034;2022-09-13T18:12:39;19.20;99.90
43862;DHT22;29510;52.140;5.034;2022-09-13T18:22:40;19.00;99.90
43862;DHT22;29510;52.140;5.034;2022-09-13T18:32:41;18.90;99.90
43862;DHT22;29510;52.140;5.034;2022-09-13T18:42:42;18.60;99.90
43862;DHT22;29510;52.140;5.034;2022-09-13T18:52:43;18.60;99.90
43862;DHT22;29510;52.140;5.034;2022-09-13T19:02:44;18.50;99.90
43862;DHT22;29510;52.140;5.034;2022-09-13T19:12:47;18.50;99.90
43862;DHT22;29510;52.140;5.034;2022-09-13T19:22:48;18.20;99.90
43862;DHT22;29510;52.140;5.034;2022-09-13T19:32:49;18.20;99.90
43862;DHT22;29510;52.140;5.034;2022-09-13T19:42:50;18.00;99.90
43862;DHT22;29510;52.140;5.034;2022-09-13T19:52:51;17.90;99.90
43862;DHT22;29510;52.140;5.034;2022-09-13T20:02:53;17.80;99.90
43862;DHT22;29510;52.140;5.034;2022-09-13T20:12:54;17.80;99.90
43862;DHT22;29510;52.140;5.034;2022-09-13T20:22:55;17.70;99.90
43862;DHT22;29510;52.140;5.034;2022-09-13T20:32:56;17.80;99.90
43862;DHT22;29510;52.140;5.034;2022-09-13T20:42:57;17.70;99.90
43862;DHT22;29510;52.140;5.034;2022-09-13T20:52:58;17.50;99.90
43862;DHT22;29510;52.140;5.034;2022-09-13T21:03:00;17.40;99.90
43862;DHT22;29510;52.140;5.034;2022-09-13T21:13:01;17.30;99.90
43862;DHT22;29510;52.140;5.034;2022-09-13T21:23:02;17.30;99.90
43862;DHT22;29510;52.140;5.034;2022-09-13T21:33:03;17.10;99.90
43862;DHT22;29510;52.140;5.034;2022-09-13T21:43:04;17.10;99.90
43862;DHT22;29510;52.140;5.034;2022-09-13T21:53:05;17.00;99.90
43862;DHT22;29510;52.140;5.034;2022-09-13T22:03:09;16.90;99.90
43862;DHT22;29510;52.140;5.034;2022-09-13T22:13:10;16.90;99.90
43862;DHT22;29510;52.140;5.034;2022-09-13T22:23:11;16.80;99.90
43862;DHT22;29510;52.140;5.034;2022-09-13T22:33:12;16.70;99.90
43862;DHT22;29510;52.140;5.034;2022-09-13T22:43:13;16.60;99.90
43862;DHT22;29510;52.140;5.034;2022-09-13T22:53:14;16.60;99.90
43862;DHT22;29510;52.140;5.034;2022-09-13T23:03:15;16.60;99.90
43862;DHT22;29510;52.140;5.034;2022-09-13T23:13:16;16.60;99.90
43862;DHT22;29510;52.140;5.034;2022-09-13T23:23:17;16.50;99.90
43862;DHT22;29510;52.140;5.034;2022-09-13T23:33:18;16.50;99.90
43862;DHT22;29510;52.140;5.034;2022-09-13T23:43:19;16.50;99.90
43862;DHT22;29510;52.140;5.034;2022-09-13T23:53:20;16.50;99.90
